Ararat, Virginia
Current Conditions -  °F | °C
As of 3:35 AM on Friday 21 Nov 2014 (Local Time) from KMWK Reporting Station
Clear Clear  
Wind Chill: -1°   Ceiling: Unl
Heat Index:   Visibility: 10mi
Dew Point: -9°   Wind: 5mph
Humidity: 49%   Direction: 310°NW
Pressure: 30.24"   Gusts: NA
Location:  36.6°N, 80.51°W
Report Text: KMWK 210835Z AUTO 31004KT 10SM CLR 01/M09 A3024 RMK AO2 T00101088
Loading
Personal Weather Stations






























Interactive Weather Map New forecast layout! Learn more

10-Day Weather Forecast

Advertisements
Track Severe Weather on mobile